sensor_id;sensor_type;location;lat;lon;timestamp;pressure;altitude;pressure_sealevel;temperature;humidity
57990;BME280;58373;51.824;5.564;2022-08-05T00:01:57;101441.50;;;19.35;79.94
57990;BME280;58373;51.824;5.564;2022-08-05T00:04:23;101440.34;;;19.29;80.68
57990;BME280;58373;51.824;5.564;2022-08-05T00:06:48;101448.88;;;19.48;79.58
57990;BME280;58373;51.824;5.564;2022-08-05T00:09:13;101440.84;;;19.33;79.57
57990;BME280;58373;51.824;5.564;2022-08-05T00:11:39;101432.66;;;19.28;79.83
57990;BME280;58373;51.824;5.564;2022-08-05T00:14:04;101435.59;;;19.33;79.27
57990;BME280;58373;51.824;5.564;2022-08-05T00:16:29;101444.16;;;19.27;79.97
57990;BME280;58373;51.824;5.564;2022-08-05T00:18:55;101431.97;;;19.34;79.68
57990;BME280;58373;51.824;5.564;2022-08-05T00:21:20;101415.88;;;19.21;79.89
57990;BME280;58373;51.824;5.564;2022-08-05T00:23:46;101422.44;;;19.25;79.65
57990;BME280;58373;51.824;5.564;2022-08-05T00:26:13;101419.34;;;19.21;79.45
57990;BME280;58373;51.824;5.564;2022-08-05T00:28:38;101419.66;;;19.18;79.14
57990;BME280;58373;51.824;5.564;2022-08-05T00:31:04;101429.38;;;19.18;79.74
57990;BME280;58373;51.824;5.564;2022-08-05T00:33:31;101411.44;;;19.13;79.58
57990;BME280;58373;51.824;5.564;2022-08-05T00:35:56;101428.38;;;19.19;79.58
57990;BME280;58373;51.824;5.564;2022-08-05T00:38:22;101430.03;;;19.12;80.11
57990;BME280;58373;51.824;5.564;2022-08-05T00:40:53;101448.09;;;19.15;79.23
57990;BME280;58373;51.824;5.564;2022-08-05T00:43:19;101448.41;;;19.28;79.61
57990;BME280;58373;51.824;5.564;2022-08-05T00:45:45;101449.09;;;19.22;78.57
57990;BME280;58373;51.824;5.564;2022-08-05T00:48:14;101451.41;;;19.17;79.30
57990;BME280;58373;51.824;5.564;2022-08-05T00:50:40;101456.31;;;19.20;78.66
57990;BME280;58373;51.824;5.564;2022-08-05T00:53:06;101465.84;;;19.13;79.09
57990;BME280;58373;51.824;5.564;2022-08-05T00:55:32;101462.38;;;19.20;77.98
57990;BME280;58373;51.824;5.564;2022-08-05T00:57:58;101451.25;;;19.10;77.93
57990;BME280;58373;51.824;5.564;2022-08-05T01:00:23;101442.16;;;19.21;78.14
57990;BME280;58373;51.824;5.564;2022-08-05T01:02:49;101442.84;;;19.15;77.95
57990;BME280;58373;51.824;5.564;2022-08-05T01:05:14;101436.28;;;19.10;78.42
57990;BME280;58373;51.824;5.564;2022-08-05T01:07:39;101443.19;;;19.12;78.67
57990;BME280;58373;51.824;5.564;2022-08-05T01:10:09;101434.31;;;18.96;79.22
57990;BME280;58373;51.824;5.564;2022-08-05T01:12:40;101445.78;;;19.03;78.24
57990;BME280;58373;51.824;5.564;2022-08-05T01:15:10;101458.66;;;18.98;78.56
57990;BME280;58373;51.824;5.564;2022-08-05T01:17:46;101457.31;;;18.94;78.24
57990;BME280;58373;51.824;5.564;2022-08-05T01:26:20;101459.09;;;18.86;78.52
57990;BME280;58373;51.824;5.564;2022-08-05T01:28:57;101469.31;;;18.89;78.20
57990;BME280;58373;51.824;5.564;2022-08-05T01:31:44;101478.00;;;18.89;78.22
57990;BME280;58373;51.824;5.564;2022-08-05T01:34:19;101489.53;;;18.88;79.05
57990;BME280;58373;51.824;5.564;2022-08-05T01:36:50;101473.25;;;18.84;77.97
57990;BME280;58373;51.824;5.564;2022-08-05T01:39:18;101479.63;;;18.74;78.69
57990;BME280;58373;51.824;5.564;2022-08-05T01:41:44;101491.81;;;18.83;78.44
57990;BME280;58373;51.824;5.564;2022-08-05T01:44:12;101498.88;;;18.82;78.33
57990;BME280;58373;51.824;5.564;2022-08-05T01:46:39;101501.69;;;18.81;78.20
57990;BME280;58373;51.824;5.564;2022-08-05T01:49:05;101496.72;;;18.78;78.18
57990;BME280;58373;51.824;5.564;2022-08-05T01:51:34;101484.88;;;18.74;78.10
57990;BME280;58373;51.824;5.564;2022-08-05T01:54:02;101477.50;;;18.77;78.18
57990;BME280;58373;51.824;5.564;2022-08-05T01:56:29;101475.06;;;19.00;76.81
57990;BME280;58373;51.824;5.564;2022-08-05T01:58:55;101481.28;;;18.75;78.00
57990;BME280;58373;51.824;5.564;2022-08-05T02:01:21;101489.81;;;18.69;78.20
57990;BME280;58373;51.824;5.564;2022-08-05T02:03:50;101478.63;;;18.58;78.94
57990;BME280;58373;51.824;5.564;2022-08-05T02:06:16;101482.19;;;18.57;78.32
57990;BME280;58373;51.824;5.564;2022-08-05T02:08:42;101489.13;;;18.58;79.89
57990;BME280;58373;51.824;5.564;2022-08-05T02:11:10;101484.50;;;18.52;79.08
57990;BME280;58373;51.824;5.564;2022-08-05T02:16:21;101476.16;;;18.65;78.49
57990;BME280;58373;51.824;5.564;2022-08-05T02:18:50;101477.13;;;18.56;78.72
57990;BME280;58373;51.824;5.564;2022-08-05T02:24:33;101480.25;;;18.60;78.99
57990;BME280;58373;51.824;5.564;2022-08-05T02:27:02;101480.72;;;18.63;78.19
57990;BME280;58373;51.824;5.564;2022-08-05T02:29:31;101473.66;;;18.55;78.56
57990;BME280;58373;51.824;5.564;2022-08-05T02:31:59;101473.66;;;18.55;78.97
57990;BME280;58373;51.824;5.564;2022-08-05T02:34:28;101470.38;;;18.53;79.13
57990;BME280;58373;51.824;5.564;2022-08-05T02:36:56;101447.09;;;18.58;78.83
57990;BME280;58373;51.824;5.564;2022-08-05T02:39:23;101429.31;;;18.44;79.27
57990;BME280;58373;51.824;5.564;2022-08-05T02:41:51;101447.72;;;18.44;79.45
57990;BME280;58373;51.824;5.564;2022-08-05T02:44:22;101458.56;;;18.41;78.91
57990;BME280;58373;51.824;5.564;2022-08-05T02:46:48;101453.13;;;18.43;79.29
57990;BME280;58373;51.824;5.564;2022-08-05T02:49:15;101461.66;;;18.45;79.54
57990;BME280;58373;51.824;5.564;2022-08-05T02:51:41;101472.34;;;18.43;79.17
57990;BME280;58373;51.824;5.564;2022-08-05T02:54:08;101476.59;;;18.44;79.31
57990;BME280;58373;51.824;5.564;2022-08-05T02:56:34;101482.19;;;18.41;79.16
57990;BME280;58373;51.824;5.564;2022-08-05T02:59:00;101471.34;;;18.44;79.26
57990;BME280;58373;51.824;5.564;2022-08-05T03:01:27;101463.47;;;18.36;79.44
57990;BME280;58373;51.824;5.564;2022-08-05T03:03:59;101476.09;;;18.41;79.21
57990;BME280;58373;51.824;5.564;2022-08-05T03:06:25;101478.56;;;18.42;79.47
57990;BME280;58373;51.824;5.564;2022-08-05T03:08:52;101480.19;;;18.35;79.51
57990;BME280;58373;51.824;5.564;2022-08-05T03:11:22;101479.06;;;18.46;79.13
57990;BME280;58373;51.824;5.564;2022-08-05T03:13:49;101467.56;;;18.39;79.40
57990;BME280;58373;51.824;5.564;2022-08-05T03:16:15;101477.94;;;18.48;79.14
57990;BME280;58373;51.824;5.564;2022-08-05T03:18:41;101467.25;;;18.42;79.28
57990;BME280;58373;51.824;5.564;2022-08-05T03:21:06;101464.44;;;18.43;79.01
57990;BME280;58373;51.824;5.564;2022-08-05T03:23:33;101455.53;;;18.28;79.40
57990;BME280;58373;51.824;5.564;2022-08-05T03:25:59;101441.44;;;18.29;79.54
57990;BME280;58373;51.824;5.564;2022-08-05T03:28:26;101452.56;;;18.23;80.01
57990;BME280;58373;51.824;5.564;2022-08-05T03:30:52;101454.56;;;18.29;79.59
57990;BME280;58373;51.824;5.564;2022-08-05T03:33:18;101455.88;;;18.25;79.77
57990;BME280;58373;51.824;5.564;2022-08-05T03:35:45;101449.97;;;18.31;79.96
57990;BME280;58373;51.824;5.564;2022-08-05T03:38:11;101462.13;;;18.24;79.96
57990;BME280;58373;51.824;5.564;2022-08-05T03:40:44;101471.16;;;18.29;79.82
57990;BME280;58373;51.824;5.564;2022-08-05T03:43:11;101472.31;;;18.35;79.38
57990;BME280;58373;51.824;5.564;2022-08-05T03:45:36;101459.28;;;18.17;79.67
57990;BME280;58373;51.824;5.564;2022-08-05T03:48:02;101469.34;;;18.30;79.72
57990;BME280;58373;51.824;5.564;2022-08-05T03:50:34;101475.56;;;18.21;80.61
57990;BME280;58373;51.824;5.564;2022-08-05T03:53:11;101474.22;;;18.17;80.59
57990;BME280;58373;51.824;5.564;2022-08-05T03:55:42;101475.84;;;18.18;80.77
57990;BME280;58373;51.824;5.564;2022-08-05T03:58:11;101469.28;;;18.14;80.78
57990;BME280;58373;51.824;5.564;2022-08-05T04:00:40;101473.91;;;18.20;80.98
57990;BME280;58373;51.824;5.564;2022-08-05T04:03:08;101469.66;;;18.19;80.88
57990;BME280;58373;51.824;5.564;2022-08-05T04:05:34;101464.22;;;18.20;80.96
57990;BME280;58373;51.824;5.564;2022-08-05T04:08:05;101460.09;;;18.18;81.31
57990;BME280;58373;51.824;5.564;2022-08-05T04:10:32;101452.38;;;18.16;80.70
57990;BME280;58373;51.824;5.564;2022-08-05T04:12:58;101448.59;;;18.11;81.29
57990;BME280;58373;51.824;5.564;2022-08-05T04:15:25;101457.47;;;18.10;81.72
57990;BME280;58373;51.824;5.564;2022-08-05T04:17:53;101450.06;;;18.05;81.14
57990;BME280;58373;51.824;5.564;2022-08-05T04:20:19;101448.06;;;17.99;81.12
57990;BME280;58373;51.824;5.564;2022-08-05T04:22:45;101440.34;;;17.89;81.38
57990;BME280;58373;51.824;5.564;2022-08-05T04:25:11;101458.03;;;17.87;81.67
57990;BME280;58373;51.824;5.564;2022-08-05T04:27:36;101451.44;;;17.83;81.89
57990;BME280;58373;51.824;5.564;2022-08-05T04:30:03;101456.69;;;17.83;82.00
57990;BME280;58373;51.824;5.564;2022-08-05T04:32:28;101451.75;;;17.80;82.02
57990;BME280;58373;51.824;5.564;2022-08-05T04:34:54;101466.34;;;17.83;82.05
57990;BME280;58373;51.824;5.564;2022-08-05T04:37:19;101472.13;;;17.86;81.69
57990;BME280;58373;51.824;5.564;2022-08-05T04:39:44;101483.56;;;17.77;82.31
57990;BME280;58373;51.824;5.564;2022-08-05T04:42:10;101495.72;;;17.78;82.52
57990;BME280;58373;51.824;5.564;2022-08-05T04:44:35;101492.00;;;17.71;82.27
57990;BME280;58373;51.824;5.564;2022-08-05T04:47:01;101497.97;;;17.73;82.27
57990;BME280;58373;51.824;5.564;2022-08-05T04:49:26;101497.97;;;17.73;82.52
57990;BME280;58373;51.824;5.564;2022-08-05T04:51:52;101503.22;;;17.73;82.48
57990;BME280;58373;51.824;5.564;2022-08-05T04:54:17;101493.00;;;17.70;82.40
57990;BME280;58373;51.824;5.564;2022-08-05T04:56:44;101498.47;;;17.76;82.39
57990;BME280;58373;51.824;5.564;2022-08-05T04:59:09;101485.09;;;17.62;83.01
57990;BME280;58373;51.824;5.564;2022-08-05T05:01:35;101488.06;;;17.67;83.13
57990;BME280;58373;51.824;5.564;2022-08-05T05:04:00;101493.63;;;17.64;83.18
57990;BME280;58373;51.824;5.564;2022-08-05T05:06:25;101485.09;;;17.62;83.72
57990;BME280;58373;51.824;5.564;2022-08-05T05:08:51;101487.75;;;17.70;83.37
57990;BME280;58373;51.824;5.564;2022-08-05T05:11:16;101499.63;;;17.74;82.99
57990;BME280;58373;51.824;5.564;2022-08-05T05:13:42;101496.31;;;17.72;83.33
57990;BME280;58373;51.824;5.564;2022-08-05T05:16:07;101493.81;;;17.70;83.03
57990;BME280;58373;51.824;5.564;2022-08-05T05:18:32;101496.25;;;17.64;83.36
57990;BME280;58373;51.824;5.564;2022-08-05T05:20:58;101493.75;;;17.80;82.97
57990;BME280;58373;51.824;5.564;2022-08-05T05:23:23;101485.81;;;17.72;83.28
57990;BME280;58373;51.824;5.564;2022-08-05T05:25:49;101492.34;;;17.68;83.34
57990;BME280;58373;51.824;5.564;2022-08-05T05:28:14;101499.06;;;17.70;83.60
57990;BME280;58373;51.824;5.564;2022-08-05T05:30:39;101498.88;;;17.64;83.88
57990;BME280;58373;51.824;5.564;2022-08-05T05:33:06;101503.81;;;17.67;83.76
57990;BME280;58373;51.824;5.564;2022-08-05T05:35:33;101498.25;;;17.70;83.92
57990;BME280;58373;51.824;5.564;2022-08-05T05:38:00;101495.25;;;17.65;83.97
57990;BME280;58373;51.824;5.564;2022-08-05T05:40:28;101490.34;;;17.62;83.91
57990;BME280;58373;51.824;5.564;2022-08-05T05:42:54;101496.91;;;17.66;83.48
57990;BME280;58373;51.824;5.564;2022-08-05T05:45:20;101498.47;;;17.50;84.19
57990;BME280;58373;51.824;5.564;2022-08-05T05:47:46;101508.13;;;17.50;84.76
57990;BME280;58373;51.824;5.564;2022-08-05T05:50:13;101512.84;;;17.46;84.61
57990;BME280;58373;51.824;5.564;2022-08-05T05:52:39;101510.06;;;17.48;84.36
57990;BME280;58373;51.824;5.564;2022-08-05T05:55:07;101520.44;;;17.49;84.10
57990;BME280;58373;51.824;5.564;2022-08-05T05:57:34;101516.94;;;17.49;84.74
57990;BME280;58373;51.824;5.564;2022-08-05T05:59:59;101518.09;;;17.46;84.76
57990;BME280;58373;51.824;5.564;2022-08-05T06:02:24;101510.69;;;17.42;84.61
57990;BME280;58373;51.824;5.564;2022-08-05T06:04:50;101525.34;;;17.52;85.37
57990;BME280;58373;51.824;5.564;2022-08-05T06:07:15;101527.97;;;17.52;85.05
57990;BME280;58373;51.824;5.564;2022-08-05T06:09:41;101527.88;;;17.62;85.81
57990;BME280;58373;51.824;5.564;2022-08-05T06:12:06;101534.56;;;17.57;85.24
57990;BME280;58373;51.824;5.564;2022-08-05T06:14:32;101535.56;;;17.56;85.29
57990;BME280;58373;51.824;5.564;2022-08-05T06:16:58;101531.78;;;17.58;85.14
57990;BME280;58373;51.824;5.564;2022-08-05T06:19:24;101538.28;;;17.72;84.81
57990;BME280;58373;51.824;5.564;2022-08-05T06:21:50;101539.97;;;17.73;85.27
57990;BME280;58373;51.824;5.564;2022-08-05T06:24:15;101536.34;;;17.74;84.94
57990;BME280;58373;51.824;5.564;2022-08-05T06:26:41;101532.44;;;17.78;84.15
57990;BME280;58373;51.824;5.564;2022-08-05T06:29:06;101530.13;;;17.75;84.04
57990;BME280;58373;51.824;5.564;2022-08-05T06:31:31;101542.41;;;17.74;84.20
57990;BME280;58373;51.824;5.564;2022-08-05T06:33:57;101547.22;;;17.79;83.67
57990;BME280;58373;51.824;5.564;2022-08-05T06:36:22;101546.22;;;17.80;83.81
57990;BME280;58373;51.824;5.564;2022-08-05T06:38:48;101540.47;;;17.76;82.92
57990;BME280;58373;51.824;5.564;2022-08-05T06:41:17;101533.47;;;17.85;82.76
57990;BME280;58373;51.824;5.564;2022-08-05T06:43:43;101533.97;;;17.89;82.40
57990;BME280;58373;51.824;5.564;2022-08-05T06:46:08;101546.00;;;17.99;82.01
57990;BME280;58373;51.824;5.564;2022-08-05T06:48:34;101540.75;;;17.99;82.16
57990;BME280;58373;51.824;5.564;2022-08-05T06:51:00;101537.47;;;17.97;82.18
57990;BME280;58373;51.824;5.564;2022-08-05T06:53:26;101536.69;;;18.05;81.93
57990;BME280;58373;51.824;5.564;2022-08-05T06:55:51;101545.06;;;18.09;81.84
57990;BME280;58373;51.824;5.564;2022-08-05T06:58:16;101549.50;;;18.08;81.58
57990;BME280;58373;51.824;5.564;2022-08-05T07:00:42;101548.69;;;18.08;81.42
57990;BME280;58373;51.824;5.564;2022-08-05T07:03:07;101555.97;;;18.22;82.58
57990;BME280;58373;51.824;5.564;2022-08-05T07:05:32;101565.19;;;18.26;81.71
57990;BME280;58373;51.824;5.564;2022-08-05T07:07:58;101562.91;;;18.31;81.29
57990;BME280;58373;51.824;5.564;2022-08-05T07:10:23;101569.97;;;18.30;80.81
57990;BME280;58373;51.824;5.564;2022-08-05T07:12:49;101579.38;;;18.41;80.60
57990;BME280;58373;51.824;5.564;2022-08-05T07:15:34;101585.28;;;18.43;79.74
57990;BME280;58373;51.824;5.564;2022-08-05T07:18:17;101587.25;;;18.41;78.72
57990;BME280;58373;51.824;5.564;2022-08-05T07:20:43;101590.41;;;18.53;78.88
57990;BME280;58373;51.824;5.564;2022-08-05T07:23:08;101589.91;;;18.49;78.69
57990;BME280;58373;51.824;5.564;2022-08-05T07:25:33;101594.22;;;18.58;78.20
57990;BME280;58373;51.824;5.564;2022-08-05T07:27:59;101605.03;;;18.64;77.59
57990;BME280;58373;51.824;5.564;2022-08-05T07:30:24;101610.63;;;18.61;78.56
57990;BME280;58373;51.824;5.564;2022-08-05T07:32:50;101606.56;;;18.66;77.37
57990;BME280;58373;51.824;5.564;2022-08-05T07:35:15;101617.28;;;18.73;78.02
57990;BME280;58373;51.824;5.564;2022-08-05T07:37:40;101620.72;;;18.73;76.35
57990;BME280;58373;51.824;5.564;2022-08-05T07:40:07;101614.00;;;18.71;75.50
57990;BME280;58373;51.824;5.564;2022-08-05T07:42:33;101624.16;;;18.74;75.06
57990;BME280;58373;51.824;5.564;2022-08-05T07:44:58;101628.78;;;18.80;76.15
57990;BME280;58373;51.824;5.564;2022-08-05T07:47:24;101624.56;;;18.87;76.45
57990;BME280;58373;51.824;5.564;2022-08-05T07:49:50;101613.53;;;18.92;76.13
57990;BME280;58373;51.824;5.564;2022-08-05T07:52:18;101631.69;;;19.11;76.28
57990;BME280;58373;51.824;5.564;2022-08-05T07:54:44;101621.63;;;18.98;73.24
57990;BME280;58373;51.824;5.564;2022-08-05T07:57:10;101606.84;;;19.05;72.42
57990;BME280;58373;51.824;5.564;2022-08-05T07:59:35;101623.78;;;19.19;74.34
57990;BME280;58373;51.824;5.564;2022-08-05T08:02:01;101622.84;;;19.28;73.06
57990;BME280;58373;51.824;5.564;2022-08-05T08:04:27;101622.66;;;19.22;72.52
57990;BME280;58373;51.824;5.564;2022-08-05T08:06:53;101617.41;;;19.38;72.97
57990;BME280;58373;51.824;5.564;2022-08-05T08:09:18;101613.63;;;19.49;74.04
57990;BME280;58373;51.824;5.564;2022-08-05T08:11:44;101619.09;;;19.63;73.55
57990;BME280;58373;51.824;5.564;2022-08-05T08:14:09;101631.28;;;19.73;72.26
57990;BME280;58373;51.824;5.564;2022-08-05T08:16:35;101633.91;;;19.73;71.97
57990;BME280;58373;51.824;5.564;2022-08-05T08:19:00;101633.56;;;19.76;72.15
57990;BME280;58373;51.824;5.564;2022-08-05T08:21:25;101641.47;;;19.68;71.16
57990;BME280;58373;51.824;5.564;2022-08-05T08:23:51;101638.81;;;19.59;70.34
57990;BME280;58373;51.824;5.564;2022-08-05T08:26:16;101652.59;;;19.53;70.40
57990;BME280;58373;51.824;5.564;2022-08-05T08:28:42;101650.47;;;19.49;70.74
57990;BME280;58373;51.824;5.564;2022-08-05T08:31:07;101656.88;;;19.46;70.62
57990;BME280;58373;51.824;5.564;2022-08-05T08:33:33;101656.53;;;19.41;70.86
57990;BME280;58373;51.824;5.564;2022-08-05T08:35:59;101648.50;;;19.51;71.94
57990;BME280;58373;51.824;5.564;2022-08-05T08:38:24;101656.75;;;19.56;72.46
57990;BME280;58373;51.824;5.564;2022-08-05T08:40:50;101640.09;;;19.55;70.44
57990;BME280;58373;51.824;5.564;2022-08-05T08:43:17;101657.56;;;19.56;69.96
57990;BME280;58373;51.824;5.564;2022-08-05T08:45:44;101656.09;;;19.70;71.13
57990;BME280;58373;51.824;5.564;2022-08-05T08:48:11;101670.09;;;19.71;67.97
57990;BME280;58373;51.824;5.564;2022-08-05T08:50:41;101655.88;;;19.55;65.40
57990;BME280;58373;51.824;5.564;2022-08-05T08:53:08;101668.13;;;19.73;66.90
57990;BME280;58373;51.824;5.564;2022-08-05T08:55:34;101676.97;;;19.72;66.81
57990;BME280;58373;51.824;5.564;2022-08-05T08:58:01;101684.53;;;19.67;66.48
57990;BME280;58373;51.824;5.564;2022-08-05T09:00:27;101683.25;;;19.62;66.25
57990;BME280;58373;51.824;5.564;2022-08-05T09:02:52;101692.72;;;19.55;65.81
57990;BME280;58373;51.824;5.564;2022-08-05T09:05:19;101696.69;;;19.51;63.18
57990;BME280;58373;51.824;5.564;2022-08-05T09:07:45;101698.00;;;19.55;63.43
57990;BME280;58373;51.824;5.564;2022-08-05T09:10:10;101696.03;;;19.57;59.75
57990;BME280;58373;51.824;5.564;2022-08-05T09:12:36;101697.72;;;19.67;59.93
57990;BME280;58373;51.824;5.564;2022-08-05T09:15:03;101697.41;;;19.70;59.63
57990;BME280;58373;51.824;5.564;2022-08-05T09:17:29;101694.09;;;19.76;61.28
57990;BME280;58373;51.824;5.564;2022-08-05T09:19:55;101698.38;;;19.69;61.05
57990;BME280;58373;51.824;5.564;2022-08-05T09:22:20;101707.91;;;19.78;60.49
57990;BME280;58373;51.824;5.564;2022-08-05T09:25:02;101703.16;;;19.81;59.35
57990;BME280;58373;51.824;5.564;2022-08-05T09:27:35;101711.38;;;20.03;59.01
57990;BME280;58373;51.824;5.564;2022-08-05T09:30:04;101707.28;;;20.08;55.96
57990;BME280;58373;51.824;5.564;2022-08-05T09:32:35;101715.47;;;20.22;56.66
57990;BME280;58373;51.824;5.564;2022-08-05T09:35:08;101724.69;;;20.34;55.00
57990;BME280;58373;51.824;5.564;2022-08-05T09:37:35;101716.59;;;20.35;52.19
57990;BME280;58373;51.824;5.564;2022-08-05T09:40:00;101719.72;;;20.47;52.29
57990;BME280;58373;51.824;5.564;2022-08-05T09:42:37;101723.69;;;20.59;53.39
57990;BME280;58373;51.824;5.564;2022-08-05T09:45:07;101726.78;;;20.71;52.98
57990;BME280;58373;51.824;5.564;2022-08-05T09:47:33;101726.56;;;20.81;52.09
57990;BME280;58373;51.824;5.564;2022-08-05T09:49:59;101721.91;;;20.91;52.09
57990;BME280;58373;51.824;5.564;2022-08-05T09:52:29;101726.16;;;21.00;50.12
57990;BME280;58373;51.824;5.564;2022-08-05T09:55:06;101730.06;;;21.12;51.00
57990;BME280;58373;51.824;5.564;2022-08-05T09:57:39;101726.31;;;21.07;48.82
57990;BME280;58373;51.824;5.564;2022-08-05T10:02:42;101737.59;;;21.24;47.48
57990;BME280;58373;51.824;5.564;2022-08-05T10:08:04;101734.84;;;21.48;48.61
57990;BME280;58373;51.824;5.564;2022-08-05T10:10:45;101743.06;;;21.53;46.04
57990;BME280;58373;51.824;5.564;2022-08-05T10:13:11;101744.69;;;21.54;44.40
57990;BME280;58373;51.824;5.564;2022-08-05T10:15:40;101749.59;;;21.65;45.16
57990;BME280;58373;51.824;5.564;2022-08-05T10:18:17;101753.22;;;21.64;44.62
57990;BME280;58373;51.824;5.564;2022-08-05T10:20:45;101749.53;;;21.73;42.46
57990;BME280;58373;51.824;5.564;2022-08-05T10:23:12;101743.06;;;21.53;44.03
57990;BME280;58373;51.824;5.564;2022-08-05T10:25:38;101755.25;;;21.54;45.39
57990;BME280;58373;51.824;5.564;2022-08-05T10:28:04;101751.19;;;21.43;44.72
57990;BME280;58373;51.824;5.564;2022-08-05T10:30:30;101753.63;;;21.53;46.58
57990;BME280;58373;51.824;5.564;2022-08-05T10:32:56;101752.06;;;21.36;43.99
57990;BME280;58373;51.824;5.564;2022-08-05T10:35:23;101756.16;;;21.38;45.75
57990;BME280;58373;51.824;5.564;2022-08-05T10:37:49;101752.06;;;21.36;45.77
57990;BME280;58373;51.824;5.564;2022-08-05T10:40:23;101752.06;;;21.36;46.79
57990;BME280;58373;51.824;5.564;2022-08-05T10:42:53;101761.94;;;21.42;47.10
57990;BME280;58373;51.824;5.564;2022-08-05T10:45:27;101762.56;;;21.44;46.87
57990;BME280;58373;51.824;5.564;2022-08-05T10:47:53;101761.53;;;21.53;48.77
57990;BME280;58373;51.824;5.564;2022-08-05T10:50:19;101772.50;;;21.42;47.89
57990;BME280;58373;51.824;5.564;2022-08-05T10:52:49;101769.91;;;21.34;47.52
57990;BME280;58373;51.824;5.564;2022-08-05T10:55:22;101784.09;;;21.25;46.77
57990;BME280;58373;51.824;5.564;2022-08-05T10:58:05;101787.72;;;21.32;47.66
57990;BME280;58373;51.824;5.564;2022-08-05T11:00:31;101785.38;;;21.37;47.39
57990;BME280;58373;51.824;5.564;2022-08-05T11:05:28;101797.56;;;21.46;45.59
57990;BME280;58373;51.824;5.564;2022-08-05T11:07:59;101786.81;;;21.47;46.39
57990;BME280;58373;51.824;5.564;2022-08-05T11:13:40;101799.84;;;21.49;45.68
57990;BME280;58373;51.824;5.564;2022-08-05T11:16:23;101812.72;;;21.44;46.37
57990;BME280;58373;51.824;5.564;2022-08-05T11:19:28;101808.13;;;21.38;46.06
57990;BME280;58373;51.824;5.564;2022-08-05T11:21:55;101819.38;;;21.32;46.70
57990;BME280;58373;51.824;5.564;2022-08-05T11:24:42;101817.22;;;21.27;46.54
57990;BME280;58373;51.824;5.564;2022-08-05T11:27:30;101823.34;;;21.28;47.06
57990;BME280;58373;51.824;5.564;2022-08-05T11:29:59;101818.38;;;21.41;48.13
57990;BME280;58373;51.824;5.564;2022-08-05T11:32:25;101829.19;;;21.54;48.72
57990;BME280;58373;51.824;5.564;2022-08-05T11:34:51;101827.22;;;21.48;46.55
57990;BME280;58373;51.824;5.564;2022-08-05T11:40:06;101825.47;;;21.32;45.03
57990;BME280;58373;51.824;5.564;2022-08-05T11:42:32;101836.84;;;21.33;46.68
57990;BME280;58373;51.824;5.564;2022-08-05T11:45:03;101836.16;;;21.39;46.70
57990;BME280;58373;51.824;5.564;2022-08-05T11:47:34;101840.16;;;21.35;44.51
57990;BME280;58373;51.824;5.564;2022-08-05T11:49:59;101838.19;;;21.20;43.57
57990;BME280;58373;51.824;5.564;2022-08-05T11:52:26;101852.44;;;21.03;41.24
57990;BME280;58373;51.824;5.564;2022-08-05T11:54:53;101858.38;;;20.97;40.74
57990;BME280;58373;51.824;5.564;2022-08-05T11:57:19;101855.41;;;20.92;41.93
57990;BME280;58373;51.824;5.564;2022-08-05T11:59:44;101862.66;;;20.98;43.21
57990;BME280;58373;51.824;5.564;2022-08-05T12:02:10;101866.28;;;21.05;42.63
57990;BME280;58373;51.824;5.564;2022-08-05T12:04:41;101865.97;;;20.76;41.63
57990;BME280;58373;51.824;5.564;2022-08-05T12:07:08;101876.53;;;20.76;43.47
57990;BME280;58373;51.824;5.564;2022-08-05T12:09:38;101883.47;;;20.77;44.17
57990;BME280;58373;51.824;5.564;2022-08-05T12:12:05;101878.00;;;20.86;43.85
57990;BME280;58373;51.824;5.564;2022-08-05T12:14:40;101894.66;;;20.87;43.87
57990;BME280;58373;51.824;5.564;2022-08-05T12:17:10;101890.38;;;20.86;44.20
57990;BME280;58373;51.824;5.564;2022-08-05T12:19:49;101895.00;;;20.84;44.11
57990;BME280;58373;51.824;5.564;2022-08-05T12:22:17;101891.53;;;20.83;44.52
57990;BME280;58373;51.824;5.564;2022-08-05T12:24:46;101898.63;;;20.75;43.95
57990;BME280;58373;51.824;5.564;2022-08-05T12:27:22;101902.25;;;20.82;45.81
57990;BME280;58373;51.824;5.564;2022-08-05T12:30:17;101904.88;;;20.90;46.43
57990;BME280;58373;51.824;5.564;2022-08-05T12:32:44;101908.81;;;20.86;46.91
57990;BME280;58373;51.824;5.564;2022-08-05T12:35:11;101902.22;;;20.98;45.74
57990;BME280;58373;51.824;5.564;2022-08-05T12:37:39;101908.78;;;21.10;45.75
57990;BME280;58373;51.824;5.564;2022-08-05T12:40:07;101907.50;;;21.06;45.46
57990;BME280;58373;51.824;5.564;2022-08-05T12:42:34;101913.44;;;20.92;43.69
57990;BME280;58373;51.824;5.564;2022-08-05T12:45:08;101916.75;;;20.94;43.37
57990;BME280;58373;51.824;5.564;2022-08-05T12:47:34;101916.75;;;20.94;41.97
57990;BME280;58373;51.824;5.564;2022-08-05T12:50:02;101915.06;;;21.09;43.65
57990;BME280;58373;51.824;5.564;2022-08-05T12:52:36;101918.66;;;21.25;43.95
57990;BME280;58373;51.824;5.564;2022-08-05T12:55:15;101920.66;;;21.14;41.80
57990;BME280;58373;51.824;5.564;2022-08-05T12:57:41;101941.78;;;21.23;39.46
57990;BME280;58373;51.824;5.564;2022-08-05T13:00:19;101935.00;;;21.28;40.46
57990;BME280;58373;51.824;5.564;2022-08-05T13:02:45;101927.22;;;21.43;40.63
57990;BME280;58373;51.824;5.564;2022-08-05T13:05:11;101926.69;;;21.56;41.71
57990;BME280;58373;51.824;5.564;2022-08-05T13:07:38;101925.53;;;21.58;41.12
57990;BME280;58373;51.824;5.564;2022-08-05T13:10:09;101931.88;;;21.80;42.17
57990;BME280;58373;51.824;5.564;2022-08-05T13:12:39;101937.47;;;21.85;40.32
57990;BME280;58373;51.824;5.564;2022-08-05T13:15:11;101931.91;;;21.72;39.64
57990;BME280;58373;51.824;5.564;2022-08-05T13:17:37;101932.19;;;21.85;40.01
57990;BME280;58373;51.824;5.564;2022-08-05T13:20:10;101946.13;;;22.02;41.26